Portada
METAR-TAF:

METAR-TAF

Aeroports :

Cranfield, Anglaterra

latitud: 52-04N, longitud: 000-37W, altitud: 111 m

Observació

L'informe es va fer fa 8 hores i 27 minuts, a les 17:50 UTC
Vent 5 kt del Oest/Nord-Oest
Temperatura 4°C
Humitat 81%
Pressió 1021 hPa
Visibilitat 10 km o més
sense núvols per sota de 1500 mi sense presència de cumulonimbus.

METAR: EGTC 091750Z 29005KT CAVOK 04/01 Q1021

Hora: 02:17 (02:17 UTC)

Pronòstic

L'informe es va fer fa 12 hores i 19 minuts, a les 13:58 UTC
Pronòstic vàlid del 09 a les 15 UTC al 09 a les 18 UTC
Vent 12 kt del Oest/Nord-Oest
Visibilitat 10 km o més
Escasses núvols a una alçada de 2500 ft

TAF: EGTC 091358Z 0915/0918 30012KT 9999 FEW025

Observacions i pronòstics meteorològics de més de 4000 aeroports (METAR i TAF).

Les estacions disponibles són els punts grocs i vermells al mapa.

Posi el ratolí al punt desitjat per veure el nom de l'estació.

Feu clic per veure les observacions i els pronòstics meteorològics.

Per canviar el mapa: feu clic els botons verds amb una creu de color negre per apropar; al botó verd amb un guió per allunyar la imatge; o en les fletxes verdes per a mapes adjacents.


METAR-TAF: